sensor_id;sensor_type;location;lat;lon;timestamp;pressure;altitude;pressure_sealevel;temperature;humidity
57948;BME280;43754;56.992;24.292;2023-05-17T00:00:12;101199.75;;;12.69;100.00
57948;BME280;43754;56.992;24.292;2023-05-17T00:02:44;101203.38;;;12.76;100.00
57948;BME280;43754;56.992;24.292;2023-05-17T00:05:16;101202.53;;;12.75;100.00
57948;BME280;43754;56.992;24.292;2023-05-17T00:07:48;101212.63;;;12.73;100.00
57948;BME280;43754;56.992;24.292;2023-05-17T00:10:22;101224.44;;;12.72;100.00
57948;BME280;43754;56.992;24.292;2023-05-17T00:12:54;101217.53;;;12.70;100.00
57948;BME280;43754;56.992;24.292;2023-05-17T00:15:26;101225.13;;;12.66;100.00
57948;BME280;43754;56.992;24.292;2023-05-17T00:17:58;101229.69;;;12.66;100.00
57948;BME280;43754;56.992;24.292;2023-05-17T00:20:30;101233.50;;;12.71;100.00
57948;BME280;43754;56.992;24.292;2023-05-17T00:23:02;101235.53;;;12.69;100.00
57948;BME280;43754;56.992;24.292;2023-05-17T00:25:36;101244.50;;;12.62;100.00
57948;BME280;43754;56.992;24.292;2023-05-17T00:28:08;101237.94;;;12.64;100.00
57948;BME280;43754;56.992;24.292;2023-05-17T00:30:40;101233.41;;;12.65;100.00
57948;BME280;43754;56.992;24.292;2023-05-17T00:33:12;101237.66;;;12.59;100.00
57948;BME280;43754;56.992;24.292;2023-05-17T00:35:45;101234.97;;;12.59;100.00
57948;BME280;43754;56.992;24.292;2023-05-17T00:38:17;101239.31;;;12.60;100.00
57948;BME280;43754;56.992;24.292;2023-05-17T00:40:50;101241.47;;;12.65;100.00
57948;BME280;43754;56.992;24.292;2023-05-17T00:43:24;101237.28;;;12.62;100.00
57948;BME280;43754;56.992;24.292;2023-05-17T00:45:57;101240.97;;;12.61;100.00
57948;BME280;43754;56.992;24.292;2023-05-17T00:48:29;101244.94;;;12.51;100.00
57948;BME280;43754;56.992;24.292;2023-05-17T00:51:02;101244.47;;;12.47;100.00
57948;BME280;43754;56.992;24.292;2023-05-17T00:53:34;101242.97;;;12.44;100.00
57948;BME280;43754;56.992;24.292;2023-05-17T00:56:09;101244.88;;;12.36;100.00
57948;BME280;43754;56.992;24.292;2023-05-17T00:58:42;101251.75;;;12.38;100.00
57948;BME280;43754;56.992;24.292;2023-05-17T01:01:14;101251.38;;;12.41;100.00
57948;BME280;43754;56.992;24.292;2023-05-17T01:03:48;101247.88;;;12.41;100.00
57948;BME280;43754;56.992;24.292;2023-05-17T01:06:20;101261.13;;;12.42;100.00
57948;BME280;43754;56.992;24.292;2023-05-17T01:08:53;101259.28;;;12.43;100.00
57948;BME280;43754;56.992;24.292;2023-05-17T01:11:34;101268.53;;;12.40;100.00
57948;BME280;43754;56.992;24.292;2023-05-17T01:14:22;101270.44;;;12.32;100.00
57948;BME280;43754;56.992;24.292;2023-05-17T01:17:00;101261.72;;;12.30;100.00
57948;BME280;43754;56.992;24.292;2023-05-17T01:19:48;101272.84;;;12.27;100.00
57948;BME280;43754;56.992;24.292;2023-05-17T01:22:30;101275.00;;;12.31;100.00
57948;BME280;43754;56.992;24.292;2023-05-17T01:25:11;101264.25;;;12.31;100.00
57948;BME280;43754;56.992;24.292;2023-05-17T01:27:51;101277.84;;;12.30;100.00
57948;BME280;43754;56.992;24.292;2023-05-17T01:30:25;101278.16;;;12.35;100.00
57948;BME280;43754;56.992;24.292;2023-05-17T01:32:59;101285.25;;;12.28;100.00
57948;BME280;43754;56.992;24.292;2023-05-17T01:35:33;101277.38;;;12.26;100.00
57948;BME280;43754;56.992;24.292;2023-05-17T01:38:05;101287.97;;;12.20;100.00
57948;BME280;43754;56.992;24.292;2023-05-17T01:40:40;101289.88;;;12.11;100.00
57948;BME280;43754;56.992;24.292;2023-05-17T01:43:21;101285.03;;;12.15;100.00
57948;BME280;43754;56.992;24.292;2023-05-17T01:46:00;101296.78;;;12.14;100.00
57948;BME280;43754;56.992;24.292;2023-05-17T01:48:38;101294.25;;;12.12;100.00
57948;BME280;43754;56.992;24.292;2023-05-17T01:51:16;101290.06;;;12.10;100.00
57948;BME280;43754;56.992;24.292;2023-05-17T01:53:54;101290.38;;;12.15;100.00
57948;BME280;43754;56.992;24.292;2023-05-17T01:56:33;101295.25;;;12.11;100.00
57948;BME280;43754;56.992;24.292;2023-05-17T01:59:07;101306.19;;;12.10;100.00
57948;BME280;43754;56.992;24.292;2023-05-17T02:01:42;101297.47;;;12.08;100.00
57948;BME280;43754;56.992;24.292;2023-05-17T02:04:14;101304.53;;;12.09;100.00
57948;BME280;43754;56.992;24.292;2023-05-17T02:06:47;101304.69;;;12.07;100.00
57948;BME280;43754;56.992;24.292;2023-05-17T02:09:19;101295.78;;;12.07;100.00
57948;BME280;43754;56.992;24.292;2023-05-17T02:11:51;101303.84;;;12.07;100.00
57948;BME280;43754;56.992;24.292;2023-05-17T02:14:24;101308.38;;;12.14;100.00
57948;BME280;43754;56.992;24.292;2023-05-17T02:16:57;101318.44;;;12.12;100.00
57948;BME280;43754;56.992;24.292;2023-05-17T02:19:29;101312.91;;;12.14;100.00
57948;BME280;43754;56.992;24.292;2023-05-17T02:22:01;101309.00;;;12.16;100.00
57948;BME280;43754;56.992;24.292;2023-05-17T02:24:33;101318.78;;;12.09;100.00
57948;BME280;43754;56.992;24.292;2023-05-17T02:27:06;101305.41;;;12.01;100.00
57948;BME280;43754;56.992;24.292;2023-05-17T02:29:39;101317.97;;;12.09;100.00
57948;BME280;43754;56.992;24.292;2023-05-17T02:32:11;101309.53;;;12.12;100.00
57948;BME280;43754;56.992;24.292;2023-05-17T02:34:44;101310.38;;;12.12;100.00
57948;BME280;43754;56.992;24.292;2023-05-17T02:37:16;101308.53;;;12.13;100.00
57948;BME280;43754;56.992;24.292;2023-05-17T02:39:48;101305.84;;;12.13;100.00
57948;BME280;43754;56.992;24.292;2023-05-17T02:42:20;101306.84;;;12.12;100.00
57948;BME280;43754;56.992;24.292;2023-05-17T02:44:54;101315.38;;;12.15;100.00
57948;BME280;43754;56.992;24.292;2023-05-17T02:47:28;101316.59;;;12.13;100.00
57948;BME280;43754;56.992;24.292;2023-05-17T02:50:01;101315.44;;;12.07;100.00
57948;BME280;43754;56.992;24.292;2023-05-17T02:52:35;101316.47;;;12.06;100.00
57948;BME280;43754;56.992;24.292;2023-05-17T02:55:08;101315.47;;;11.99;100.00
57948;BME280;43754;56.992;24.292;2023-05-17T02:57:41;101314.94;;;12.04;100.00
57948;BME280;43754;56.992;24.292;2023-05-17T03:00:16;101318.63;;;12.03;100.00
57948;BME280;43754;56.992;24.292;2023-05-17T03:02:48;101320.00;;;11.98;100.00
57948;BME280;43754;56.992;24.292;2023-05-17T03:05:20;101321.53;;;12.01;100.00
57948;BME280;43754;56.992;24.292;2023-05-17T03:07:55;101329.38;;;12.03;100.00
57948;BME280;43754;56.992;24.292;2023-05-17T03:10:27;101331.06;;;12.04;100.00
57948;BME280;43754;56.992;24.292;2023-05-17T03:12:59;101324.53;;;12.06;100.00
57948;BME280;43754;56.992;24.292;2023-05-17T03:15:37;101319.28;;;12.13;100.00
57948;BME280;43754;56.992;24.292;2023-05-17T03:18:09;101314.44;;;12.08;100.00
57948;BME280;43754;56.992;24.292;2023-05-17T03:20:43;101317.59;;;12.12;100.00
57948;BME280;43754;56.992;24.292;2023-05-17T03:23:15;101312.84;;;12.22;100.00
57948;BME280;43754;56.992;24.292;2023-05-17T03:25:57;101314.34;;;12.24;100.00
57948;BME280;43754;56.992;24.292;2023-05-17T03:28:31;101325.94;;;12.25;100.00
57948;BME280;43754;56.992;24.292;2023-05-17T03:31:05;101322.41;;;12.24;100.00
57948;BME280;43754;56.992;24.292;2023-05-17T03:33:38;101324.91;;;12.26;100.00
57948;BME280;43754;56.992;24.292;2023-05-17T03:36:11;101337.63;;;12.32;100.00
57948;BME280;43754;56.992;24.292;2023-05-17T03:38:43;101332.94;;;12.34;100.00
57948;BME280;43754;56.992;24.292;2023-05-17T03:41:15;101337.59;;;12.40;100.00
57948;BME280;43754;56.992;24.292;2023-05-17T03:43:47;101338.25;;;12.42;100.00
57948;BME280;43754;56.992;24.292;2023-05-17T03:46:21;101336.28;;;12.36;100.00
57948;BME280;43754;56.992;24.292;2023-05-17T03:48:54;101326.72;;;12.33;100.00
57948;BME280;43754;56.992;24.292;2023-05-17T03:51:26;101343.25;;;12.22;100.00
57948;BME280;43754;56.992;24.292;2023-05-17T03:53:59;101340.72;;;12.21;100.00
57948;BME280;43754;56.992;24.292;2023-05-17T03:56:33;101343.53;;;12.27;100.00
57948;BME280;43754;56.992;24.292;2023-05-17T03:59:05;101354.81;;;12.31;100.00
57948;BME280;43754;56.992;24.292;2023-05-17T04:01:39;101352.19;;;12.45;100.00
57948;BME280;43754;56.992;24.292;2023-05-17T04:04:12;101339.78;;;12.67;100.00
57948;BME280;43754;56.992;24.292;2023-05-17T04:06:45;101338.03;;;12.97;100.00
57948;BME280;43754;56.992;24.292;2023-05-17T04:09:17;101345.94;;;13.21;100.00
57948;BME280;43754;56.992;24.292;2023-05-17T04:11:49;101338.91;;;13.50;100.00
57948;BME280;43754;56.992;24.292;2023-05-17T04:14:21;101343.19;;;13.59;100.00
57948;BME280;43754;56.992;24.292;2023-05-17T04:16:55;101352.50;;;13.56;100.00
57948;BME280;43754;56.992;24.292;2023-05-17T04:19:27;101351.19;;;13.52;100.00
57948;BME280;43754;56.992;24.292;2023-05-17T04:21:59;101365.63;;;13.36;100.00
57948;BME280;43754;56.992;24.292;2023-05-17T04:24:32;101360.44;;;13.35;100.00
57948;BME280;43754;56.992;24.292;2023-05-17T04:27:05;101362.72;;;13.23;100.00
57948;BME280;43754;56.992;24.292;2023-05-17T04:29:38;101361.63;;;13.18;100.00
57948;BME280;43754;56.992;24.292;2023-05-17T04:32:13;101371.09;;;13.06;100.00
57948;BME280;43754;56.992;24.292;2023-05-17T04:34:45;101368.75;;;13.11;100.00
57948;BME280;43754;56.992;24.292;2023-05-17T04:37:17;101368.31;;;13.22;100.00
57948;BME280;43754;56.992;24.292;2023-05-17T04:39:52;101372.44;;;13.47;100.00
57948;BME280;43754;56.992;24.292;2023-05-17T04:42:24;101369.78;;;13.91;100.00
57948;BME280;43754;56.992;24.292;2023-05-17T04:45:00;101363.53;;;13.91;100.00
57948;BME280;43754;56.992;24.292;2023-05-17T04:47:35;101378.16;;;14.11;100.00
57948;BME280;43754;56.992;24.292;2023-05-17T04:50:08;101375.03;;;14.28;100.00
57948;BME280;43754;56.992;24.292;2023-05-17T04:52:40;101379.88;;;14.48;100.00
57948;BME280;43754;56.992;24.292;2023-05-17T04:55:13;101388.38;;;14.66;100.00
57948;BME280;43754;56.992;24.292;2023-05-17T04:57:46;101396.00;;;14.62;100.00
57948;BME280;43754;56.992;24.292;2023-05-17T05:00:20;101392.41;;;14.55;100.00
57948;BME280;43754;56.992;24.292;2023-05-17T05:03:03;101396.63;;;14.43;100.00
57948;BME280;43754;56.992;24.292;2023-05-17T05:05:37;101390.28;;;14.36;100.00
57948;BME280;43754;56.992;24.292;2023-05-17T05:08:09;101390.75;;;14.25;100.00
57948;BME280;43754;56.992;24.292;2023-05-17T05:10:41;101389.50;;;14.36;100.00
57948;BME280;43754;56.992;24.292;2023-05-17T05:13:14;101392.25;;;14.42;98.64
57948;BME280;43754;56.992;24.292;2023-05-17T05:15:47;101397.16;;;14.53;98.52
57948;BME280;43754;56.992;24.292;2023-05-17T05:18:20;101395.91;;;14.70;95.68
57948;BME280;43754;56.992;24.292;2023-05-17T05:20:52;101400.53;;;14.77;95.34
57948;BME280;43754;56.992;24.292;2023-05-17T05:23:25;101404.00;;;14.70;95.44
57948;BME280;43754;56.992;24.292;2023-05-17T05:25:57;101408.19;;;14.73;94.87
57948;BME280;43754;56.992;24.292;2023-05-17T05:28:29;101418.63;;;14.61;95.47
57948;BME280;43754;56.992;24.292;2023-05-17T05:31:02;101420.50;;;14.61;96.22
57948;BME280;43754;56.992;24.292;2023-05-17T05:33:44;101431.19;;;14.69;95.72
57948;BME280;43754;56.992;24.292;2023-05-17T05:36:17;101431.78;;;14.86;95.54
57948;BME280;43754;56.992;24.292;2023-05-17T05:38:50;101429.22;;;14.99;95.03
57948;BME280;43754;56.992;24.292;2023-05-17T05:41:25;101430.56;;;15.31;93.63
57948;BME280;43754;56.992;24.292;2023-05-17T05:43:57;101422.53;;;15.58;91.81
57948;BME280;43754;56.992;24.292;2023-05-17T05:46:29;101425.78;;;15.75;87.84
57948;BME280;43754;56.992;24.292;2023-05-17T05:49:04;101427.50;;;16.17;82.56
57948;BME280;43754;56.992;24.292;2023-05-17T05:51:37;101434.59;;;16.25;80.02
57948;BME280;43754;56.992;24.292;2023-05-17T05:54:12;101442.44;;;16.54;80.31
57948;BME280;43754;56.992;24.292;2023-05-17T05:56:44;101445.06;;;16.69;76.21
57948;BME280;43754;56.992;24.292;2023-05-17T05:59:18;101450.47;;;16.75;74.21
57948;BME280;43754;56.992;24.292;2023-05-17T06:01:50;101446.97;;;16.88;74.29
57948;BME280;43754;56.992;24.292;2023-05-17T06:04:24;101445.34;;;17.00;74.16
57948;BME280;43754;56.992;24.292;2023-05-17T06:07:11;101440.75;;;16.94;73.21
57948;BME280;43754;56.992;24.292;2023-05-17T06:09:43;101444.44;;;16.73;74.93
57948;BME280;43754;56.992;24.292;2023-05-17T06:12:15;101440.69;;;16.74;74.75
57948;BME280;43754;56.992;24.292;2023-05-17T06:14:48;101444.28;;;16.88;73.06
57948;BME280;43754;56.992;24.292;2023-05-17T06:17:20;101453.56;;;16.66;73.42
57948;BME280;43754;56.992;24.292;2023-05-17T06:19:53;101453.00;;;16.77;75.31
57948;BME280;43754;56.992;24.292;2023-05-17T06:22:26;101462.66;;;16.99;73.68
57948;BME280;43754;56.992;24.292;2023-05-17T06:24:58;101461.16;;;16.90;72.73
57948;BME280;43754;56.992;24.292;2023-05-17T06:27:30;101461.97;;;16.84;71.83
57948;BME280;43754;56.992;24.292;2023-05-17T06:30:05;101464.47;;;16.92;70.57
57948;BME280;43754;56.992;24.292;2023-05-17T06:32:38;101481.75;;;16.84;71.06
57948;BME280;43754;56.992;24.292;2023-05-17T06:35:11;101481.44;;;17.07;71.07
57948;BME280;43754;56.992;24.292;2023-05-17T06:37:43;101487.31;;;17.24;69.76
57948;BME280;43754;56.992;24.292;2023-05-17T06:40:15;101478.34;;;17.23;69.29
57948;BME280;43754;56.992;24.292;2023-05-17T06:42:48;101480.44;;;17.34;68.78
57948;BME280;43754;56.992;24.292;2023-05-17T06:45:20;101490.66;;;17.39;67.54
57948;BME280;43754;56.992;24.292;2023-05-17T06:47:52;101487.09;;;17.45;67.04
57948;BME280;43754;56.992;24.292;2023-05-17T06:50:26;101492.94;;;17.42;67.83
57948;BME280;43754;56.992;24.292;2023-05-17T06:52:59;101494.03;;;17.61;67.58
57948;BME280;43754;56.992;24.292;2023-05-17T06:55:31;101505.31;;;17.64;67.00
57948;BME280;43754;56.992;24.292;2023-05-17T06:58:03;101510.66;;;17.38;62.74
57948;BME280;43754;56.992;24.292;2023-05-17T07:00:36;101504.97;;;17.13;62.63
57948;BME280;43754;56.992;24.292;2023-05-17T07:03:08;101506.00;;;17.12;63.06
57948;BME280;43754;56.992;24.292;2023-05-17T07:05:42;101514.97;;;17.06;62.65
57948;BME280;43754;56.992;24.292;2023-05-17T07:08:14;101518.09;;;17.03;63.17
57948;BME280;43754;56.992;24.292;2023-05-17T07:10:46;101535.53;;;16.94;63.62
57948;BME280;43754;56.992;24.292;2023-05-17T07:13:18;101532.19;;;16.85;63.27
57948;BME280;43754;56.992;24.292;2023-05-17T07:15:50;101535.72;;;16.92;62.67
57948;BME280;43754;56.992;24.292;2023-05-17T07:18:22;101536.34;;;16.88;60.84
57948;BME280;43754;56.992;24.292;2023-05-17T07:20:56;101540.22;;;16.72;62.61
57948;BME280;43754;56.992;24.292;2023-05-17T07:23:28;101535.22;;;16.69;62.59
57948;BME280;43754;56.992;24.292;2023-05-17T07:26:00;101537.28;;;16.67;62.05
57948;BME280;43754;56.992;24.292;2023-05-17T07:28:32;101545.16;;;16.62;62.14
57948;BME280;43754;56.992;24.292;2023-05-17T07:31:04;101550.38;;;16.64;63.21
57948;BME280;43754;56.992;24.292;2023-05-17T07:33:36;101551.16;;;16.58;61.64
57948;BME280;43754;56.992;24.292;2023-05-17T07:36:10;101553.09;;;16.64;61.51
57948;BME280;43754;56.992;24.292;2023-05-17T07:38:42;101560.81;;;16.67;62.32
57948;BME280;43754;56.992;24.292;2023-05-17T07:41:14;101559.06;;;16.93;62.66
57948;BME280;43754;56.992;24.292;2023-05-17T07:43:47;101552.47;;;17.02;61.82
57948;BME280;43754;56.992;24.292;2023-05-17T07:46:19;101551.66;;;17.15;61.49
57948;BME280;43754;56.992;24.292;2023-05-17T07:48:52;101553.72;;;17.13;58.68
57948;BME280;43754;56.992;24.292;2023-05-17T07:51:30;101561.19;;;17.05;59.37
57948;BME280;43754;56.992;24.292;2023-05-17T07:54:02;101556.78;;;16.97;59.95
57948;BME280;43754;56.992;24.292;2023-05-17T07:56:35;101551.03;;;17.13;59.62
57948;BME280;43754;56.992;24.292;2023-05-17T07:59:09;101551.56;;;16.95;59.01
57948;BME280;43754;56.992;24.292;2023-05-17T08:01:41;101545.53;;;16.93;59.02
57948;BME280;43754;56.992;24.292;2023-05-17T08:04:13;101554.78;;;16.65;58.03
57948;BME280;43754;56.992;24.292;2023-05-17T08:06:47;101548.47;;;16.98;59.69
57948;BME280;43754;56.992;24.292;2023-05-17T08:09:20;101544.59;;;17.21;58.04
57948;BME280;43754;56.992;24.292;2023-05-17T08:11:53;101544.44;;;17.35;58.40
57948;BME280;43754;56.992;24.292;2023-05-17T08:14:25;101554.91;;;17.58;57.18
57948;BME280;43754;56.992;24.292;2023-05-17T08:16:57;101549.31;;;17.73;52.94
57948;BME280;43754;56.992;24.292;2023-05-17T08:19:29;101562.03;;;17.72;53.68
57948;BME280;43754;56.992;24.292;2023-05-17T08:22:03;101554.31;;;18.22;52.44
57948;BME280;43754;56.992;24.292;2023-05-17T08:24:35;101564.16;;;18.23;51.95
57948;BME280;43754;56.992;24.292;2023-05-17T08:27:07;101559.28;;;18.51;51.17
57948;BME280;43754;56.992;24.292;2023-05-17T08:29:41;101554.66;;;18.78;50.07
57948;BME280;43754;56.992;24.292;2023-05-17T08:32:13;101553.28;;;18.36;49.68
57948;BME280;43754;56.992;24.292;2023-05-17T08:34:45;101557.84;;;18.49;50.32
57948;BME280;43754;56.992;24.292;2023-05-17T08:37:19;101554.13;;;18.36;50.45
57948;BME280;43754;56.992;24.292;2023-05-17T08:39:51;101557.41;;;18.58;49.50
57948;BME280;43754;56.992;24.292;2023-05-17T08:42:24;101546.88;;;18.95;48.38
57948;BME280;43754;56.992;24.292;2023-05-17T08:44:56;101545.34;;;19.12;48.24
57948;BME280;43754;56.992;24.292;2023-05-17T08:47:28;101540.97;;;19.49;48.96
57948;BME280;43754;56.992;24.292;2023-05-17T08:50:03;101538.50;;;19.41;48.98
57948;BME280;43754;56.992;24.292;2023-05-17T08:52:38;101541.22;;;19.41;51.66
57948;BME280;43754;56.992;24.292;2023-05-17T08:55:11;101542.88;;;19.48;49.85
57948;BME280;43754;56.992;24.292;2023-05-17T08:57:46;101540.19;;;19.35;49.68
57948;BME280;43754;56.992;24.292;2023-05-17T09:00:20;101544.91;;;19.08;50.01
57948;BME280;43754;56.992;24.292;2023-05-17T09:02:53;101560.47;;;18.88;50.94
57948;BME280;43754;56.992;24.292;2023-05-17T09:05:25;101561.59;;;18.48;51.51
57948;BME280;43754;56.992;24.292;2023-05-17T09:07:58;101556.59;;;18.64;51.19
57948;BME280;43754;56.992;24.292;2023-05-17T09:10:31;101566.00;;;18.49;51.18
57948;BME280;43754;56.992;24.292;2023-05-17T09:13:03;101566.19;;;18.47;50.65
57948;BME280;43754;56.992;24.292;2023-05-17T09:15:35;101562.06;;;18.05;51.73
57948;BME280;43754;56.992;24.292;2023-05-17T09:18:09;101567.28;;;18.00;52.72
57948;BME280;43754;56.992;24.292;2023-05-17T09:20:49;101552.03;;;18.06;52.41
57948;BME280;43754;56.992;24.292;2023-05-17T09:23:22;101568.13;;;17.94;52.03
57948;BME280;43754;56.992;24.292;2023-05-17T09:26:02;101563.53;;;18.01;52.90
57948;BME280;43754;56.992;24.292;2023-05-17T09:28:38;101558.72;;;17.83;54.01
57948;BME280;43754;56.992;24.292;2023-05-17T09:31:11;101564.53;;;17.87;54.14
57948;BME280;43754;56.992;24.292;2023-05-17T09:33:47;101564.53;;;17.87;52.66
57948;BME280;43754;56.992;24.292;2023-05-17T09:36:21;101569.78;;;17.82;54.50
57948;BME280;43754;56.992;24.292;2023-05-17T09:38:55;101563.72;;;17.73;53.44
57948;BME280;43754;56.992;24.292;2023-05-17T09:41:30;101562.84;;;17.66;53.79
57948;BME280;43754;56.992;24.292;2023-05-17T09:44:07;101568.72;;;17.70;53.71
57948;BME280;43754;56.992;24.292;2023-05-17T09:46:44;101571.84;;;17.73;53.27
57948;BME280;43754;56.992;24.292;2023-05-17T09:49:17;101564.53;;;17.67;53.02
57948;BME280;43754;56.992;24.292;2023-05-17T09:51:49;101571.84;;;17.60;53.70
57948;BME280;43754;56.992;24.292;2023-05-17T09:54:22;101572.59;;;17.54;53.45
57948;BME280;43754;56.992;24.292;2023-05-17T09:56:54;101554.84;;;17.45;54.16
57948;BME280;43754;56.992;24.292;2023-05-17T09:59:30;101566.53;;;17.45;53.35
57948;BME280;43754;56.992;24.292;2023-05-17T10:02:04;101565.56;;;17.66;52.60
57948;BME280;43754;56.992;24.292;2023-05-17T10:04:40;101564.56;;;18.00;52.97
57948;BME280;43754;56.992;24.292;2023-05-17T10:07:13;101555.59;;;18.06;53.16
57948;BME280;43754;56.992;24.292;2023-05-17T10:09:47;101565.00;;;17.90;51.58
57948;BME280;43754;56.992;24.292;2023-05-17T10:12:24;101553.91;;;17.79;54.08
57948;BME280;43754;56.992;24.292;2023-05-17T10:14:58;101556.38;;;18.33;52.62
57948;BME280;43754;56.992;24.292;2023-05-17T10:17:31;101559.31;;;18.64;52.83
57948;BME280;43754;56.992;24.292;2023-05-17T10:20:05;101554.50;;;18.47;51.77
57948;BME280;43754;56.992;24.292;2023-05-17T10:22:39;101560.19;;;18.32;51.29
57948;BME280;43754;56.992;24.292;2023-05-17T10:25:14;101565.19;;;17.89;51.74
57948;BME280;43754;56.992;24.292;2023-05-17T10:27:47;101569.16;;;17.86;51.51
57948;BME280;43754;56.992;24.292;2023-05-17T10:30:21;101563.75;;;17.86;51.88
57948;BME280;43754;56.992;24.292;2023-05-17T10:32:53;101573.94;;;17.78;53.94
57948;BME280;43754;56.992;24.292;2023-05-17T10:35:26;101571.44;;;17.70;52.81
57948;BME280;43754;56.992;24.292;2023-05-17T10:37:59;101575.63;;;17.85;52.46
57948;BME280;43754;56.992;24.292;2023-05-17T10:40:33;101574.34;;;17.68;53.12
57948;BME280;43754;56.992;24.292;2023-05-17T10:43:08;101570.63;;;17.82;53.44
57948;BME280;43754;56.992;24.292;2023-05-17T10:45:40;101576.25;;;17.94;53.03
57948;BME280;43754;56.992;24.292;2023-05-17T10:48:14;101569.78;;;17.88;53.33
57948;BME280;43754;56.992;24.292;2023-05-17T10:50:48;101568.31;;;17.73;53.35
57948;BME280;43754;56.992;24.292;2023-05-17T10:53:32;101567.28;;;17.74;53.62
57948;BME280;43754;56.992;24.292;2023-05-17T10:56:06;101564.06;;;17.51;53.94
57948;BME280;43754;56.992;24.292;2023-05-17T10:58:38;101569.06;;;17.54;53.68
57948;BME280;43754;56.992;24.292;2023-05-17T11:04:20;101568.84;;;17.55;54.66
57948;BME280;43754;56.992;24.292;2023-05-17T11:07:20;101558.84;;;17.49;54.07
57948;BME280;43754;56.992;24.292;2023-05-17T11:09:54;101565.59;;;17.73;54.71
57948;BME280;43754;56.992;24.292;2023-05-17T11:12:30;101567.50;;;18.12;55.13
57948;BME280;43754;56.992;24.292;2023-05-17T11:15:06;101569.31;;;18.64;53.52
57948;BME280;43754;56.992;24.292;2023-05-17T11:17:49;101570.94;;;18.84;52.29
57948;BME280;43754;56.992;24.292;2023-05-17T11:20:31;101569.53;;;18.62;52.73
57948;BME280;43754;56.992;24.292;2023-05-17T11:23:05;101563.91;;;18.64;52.53
57948;BME280;43754;56.992;24.292;2023-05-17T11:25:38;101576.19;;;18.73;52.64
57948;BME280;43754;56.992;24.292;2023-05-17T11:28:18;101574.34;;;18.60;53.19
57948;BME280;43754;56.992;24.292;2023-05-17T11:30:59;101579.81;;;18.14;54.97
57948;BME280;43754;56.992;24.292;2023-05-17T11:33:37;101575.63;;;18.12;54.14
57948;BME280;43754;56.992;24.292;2023-05-17T11:36:16;101576.44;;;18.38;53.93
57948;BME280;43754;56.992;24.292;2023-05-17T11:39:08;101574.97;;;18.56;53.62
57948;BME280;43754;56.992;24.292;2023-05-17T11:41:47;101575.59;;;18.64;53.76
57948;BME280;43754;56.992;24.292;2023-05-17T11:44:27;101569.34;;;18.44;54.20
57948;BME280;43754;56.992;24.292;2023-05-17T11:47:00;101567.47;;;18.31;55.77
57948;BME280;43754;56.992;24.292;2023-05-17T11:49:36;101558.06;;;18.41;54.70
57948;BME280;43754;56.992;24.292;2023-05-17T11:52:09;101564.09;;;18.69;55.06
57948;BME280;43754;56.992;24.292;2023-05-17T11:54:41;101552.72;;;18.98;54.20
57948;BME280;43754;56.992;24.292;2023-05-17T11:57:14;101552.94;;;19.35;54.01
57948;BME280;43754;56.992;24.292;2023-05-17T11:59:57;101573.44;;;19.44;53.20
57948;BME280;43754;56.992;24.292;2023-05-17T12:02:31;101571.31;;;19.46;53.16
57948;BME280;43754;56.992;24.292;2023-05-17T12:05:04;101561.34;;;19.26;53.89
57948;BME280;43754;56.992;24.292;2023-05-17T12:07:36;101558.16;;;19.43;52.80
57948;BME280;43754;56.992;24.292;2023-05-17T12:10:11;101558.88;;;19.18;53.60
57948;BME280;43754;56.992;24.292;2023-05-17T12:12:44;101564.53;;;19.17;53.48
57948;BME280;43754;56.992;24.292;2023-05-17T12:15:20;101566.66;;;19.15;53.74
57948;BME280;43754;56.992;24.292;2023-05-17T12:17:53;101566.69;;;19.02;53.73
57948;BME280;43754;56.992;24.292;2023-05-17T12:20:26;101579.75;;;18.73;54.71
57948;BME280;43754;56.992;24.292;2023-05-17T12:23:00;101589.38;;;18.30;55.28
57948;BME280;43754;56.992;24.292;2023-05-17T12:25:32;101583.34;;;18.15;56.63
57948;BME280;43754;56.992;24.292;2023-05-17T12:28:14;101574.78;;;18.18;57.39
57948;BME280;43754;56.992;24.292;2023-05-17T12:30:53;101583.56;;;18.26;56.80
57948;BME280;43754;56.992;24.292;2023-05-17T12:33:33;101578.53;;;18.43;56.23
57948;BME280;43754;56.992;24.292;2023-05-17T12:36:08;101580.63;;;18.61;56.34
57948;BME280;43754;56.992;24.292;2023-05-17T12:38:40;101576.44;;;18.65;55.98
57948;BME280;43754;56.992;24.292;2023-05-17T12:41:14;101573.28;;;18.42;56.47
57948;BME280;43754;56.992;24.292;2023-05-17T12:43:48;101580.84;;;18.53;56.04
57948;BME280;43754;56.992;24.292;2023-05-17T12:46:26;101583.34;;;18.61;54.61
57948;BME280;43754;56.992;24.292;2023-05-17T12:49:00;101575.41;;;18.66;56.24
57948;BME280;43754;56.992;24.292;2023-05-17T12:51:39;101579.75;;;18.67;55.23
57948;BME280;43754;56.992;24.292;2023-05-17T12:54:25;101579.78;;;18.54;55.87
57948;BME280;43754;56.992;24.292;2023-05-17T12:56:57;101574.97;;;18.16;56.55
57948;BME280;43754;56.992;24.292;2023-05-17T12:59:29;101571.22;;;18.17;56.52
57948;BME280;43754;56.992;24.292;2023-05-17T13:02:08;101577.50;;;18.05;58.61
57948;BME280;43754;56.992;24.292;2023-05-17T13:04:40;101572.06;;;17.91;58.21
57948;BME280;43754;56.992;24.292;2023-05-17T13:07:20;101567.88;;;17.76;58.50
57948;BME280;43754;56.992;24.292;2023-05-17T13:09:52;101569.97;;;17.74;58.03
57948;BME280;43754;56.992;24.292;2023-05-17T13:12:24;101572.88;;;17.66;59.59